createdAt,value
2023-04-09T00:00:34.818Z,6.95
2023-04-09T00:05:58.253Z,6.90
2023-04-09T00:11:01.649Z,6.94
2023-04-09T00:16:05.430Z,6.97
2023-04-09T00:21:08.993Z,6.99
2023-04-09T00:26:12.314Z,7.01
2023-04-09T00:31:16.353Z,7.03
2023-04-09T00:36:19.546Z,6.97
2023-04-09T00:41:22.941Z,7.00
2023-04-09T00:46:26.563Z,7.01
2023-04-09T00:51:29.932Z,6.99
2023-04-09T00:56:33.563Z,7.07
2023-04-09T01:01:36.784Z,7.09
2023-04-09T01:07:13.875Z,7.14
2023-04-09T01:12:29.058Z,7.22
2023-04-09T01:17:56.631Z,7.26
2023-04-09T01:23:35.535Z,7.26
2023-04-09T01:28:41.649Z,7.23
2023-04-09T01:33:46.820Z,7.19
2023-04-09T02:03:30.181Z,7.38
2023-04-09T02:40:32.749Z,7.14
2023-04-09T02:45:42.622Z,7.12
2023-04-09T02:57:58.477Z,7.06
2023-04-09T03:03:23.290Z,7.04
2023-04-09T03:16:48.033Z,7.12
2023-04-09T03:36:33.670Z,7.37
2023-04-09T04:01:59.672Z,7.30
2023-04-09T04:08:00.205Z,7.22
2023-04-09T04:14:13.841Z,7.14
2023-04-09T04:43:04.224Z,7.27
2023-04-09T04:48:07.751Z,7.24
2023-04-09T04:53:25.131Z,7.27
2023-04-09T04:58:47.936Z,7.28
2023-04-09T05:04:25.969Z,7.30
2023-04-09T05:23:13.428Z,7.52
2023-04-09T05:48:27.866Z,7.63
2023-04-09T05:54:15.866Z,7.66
2023-04-09T06:00:16.211Z,7.70
2023-04-09T06:06:11.044Z,7.77
2023-04-09T06:36:15.122Z,8.22
2023-04-09T06:42:24.827Z,8.18
2023-04-09T06:47:38.581Z,8.20
2023-04-09T06:52:42.160Z,8.31
2023-04-09T06:57:45.452Z,8.37
2023-04-09T07:02:49.474Z,8.46
2023-04-09T07:07:53.036Z,8.55
2023-04-09T07:12:56.363Z,8.77
2023-04-09T07:18:00.229Z,9.00
2023-04-09T07:23:03.855Z,9.19
2023-04-09T07:28:07.107Z,9.32
2023-04-09T07:33:10.536Z,9.51
2023-04-09T07:38:20.947Z,9.68
2023-04-09T07:43:24.528Z,9.90
2023-04-09T07:48:30.089Z,10.11
2023-04-09T07:53:33.647Z,10.19
2023-04-09T07:58:43.610Z,10.41
2023-04-09T08:03:48.229Z,10.52
2023-04-09T08:08:53.676Z,10.58
2023-04-09T08:13:57.450Z,10.59
2023-04-09T08:19:00.570Z,10.70
2023-04-09T08:24:05.708Z,10.82
2023-04-09T08:29:15.636Z,11.08
2023-04-09T08:34:48.653Z,11.28
2023-04-09T08:43:11.431Z,11.42
2023-04-09T08:48:18.879Z,11.42
2023-04-09T08:53:23.712Z,11.48
2023-04-09T08:58:26.794Z,11.54
2023-04-09T09:03:29.853Z,11.56
2023-04-09T09:08:33.066Z,11.72
2023-04-09T09:13:36.165Z,11.83
2023-04-09T09:18:43.945Z,11.87
2023-04-09T09:23:48.533Z,11.89
2023-04-09T09:28:52.598Z,11.95
2023-04-09T09:33:56.549Z,12.00
2023-04-09T09:43:02.327Z,12.11
2023-04-09T09:48:06.261Z,12.36
2023-04-09T09:53:11.949Z,12.55
2023-04-09T09:58:39.050Z,12.50
2023-04-09T10:03:44.465Z,12.52
2023-04-09T10:08:49.884Z,12.74
2023-04-09T10:13:59.604Z,13.04
2023-04-09T10:19:03.606Z,13.43
2023-04-09T10:24:09.381Z,13.52
2023-04-09T10:29:14.952Z,13.61
2023-04-09T10:34:21.633Z,13.54
2023-04-09T10:39:30.172Z,13.42
2023-04-09T10:44:36.276Z,13.28
2023-04-09T10:49:42.707Z,13.23
2023-04-09T10:54:47.532Z,13.20
2023-04-09T10:59:53.433Z,13.23
2023-04-09T11:05:07.131Z,13.33
2023-04-09T11:10:17.037Z,13.42
2023-04-09T11:15:21.353Z,13.51
2023-04-09T11:20:26.356Z,13.68
2023-04-09T11:42:57.091Z,13.64
2023-04-09T11:48:02.586Z,13.65
2023-04-09T11:53:29.889Z,13.60
2023-04-09T11:58:35.272Z,13.52
2023-04-09T12:03:42.021Z,13.56
2023-04-09T12:08:59.614Z,13.55
2023-04-09T12:19:34.682Z,13.59
2023-04-09T12:24:42.098Z,13.71
2023-04-09T12:29:49.779Z,13.84
2023-04-09T12:42:21.373Z,13.97
2023-04-09T12:47:57.805Z,13.99
2023-04-09T12:53:19.767Z,13.99
2023-04-09T12:59:31.891Z,14.14
2023-04-09T13:04:45.328Z,14.20
2023-04-09T13:09:53.047Z,14.12
2023-04-09T13:15:12.332Z,14.03
2023-04-09T13:20:51.955Z,13.96
2023-04-09T13:26:45.689Z,13.94
2023-04-09T13:32:16.656Z,13.87
2023-04-09T13:43:09.893Z,13.77
2023-04-09T13:48:15.553Z,13.79
2023-04-09T13:53:20.671Z,13.77
2023-04-09T13:58:24.359Z,13.80
2023-04-09T14:03:28.024Z,13.76
2023-04-09T14:08:31.753Z,13.75
2023-04-09T14:13:35.455Z,13.73
2023-04-09T14:18:40.242Z,13.74
2023-04-09T14:23:44.421Z,13.79
2023-04-09T14:28:48.364Z,13.79
2023-04-09T14:33:53.256Z,13.81
2023-04-09T14:38:58.058Z,13.79
2023-04-09T14:44:01.584Z,13.87
2023-04-09T14:49:05.800Z,13.96
2023-04-09T14:54:09.682Z,13.99
2023-04-09T14:59:13.227Z,13.98
2023-04-09T15:04:19.934Z,13.96
2023-04-09T15:09:23.524Z,13.94
2023-04-09T15:14:29.946Z,13.94
2023-04-09T15:19:45.449Z,13.95
2023-04-09T15:24:52.002Z,13.94
2023-04-09T15:29:55.954Z,13.95
2023-04-09T15:35:00.949Z,13.92
2023-04-09T15:40:05.006Z,14.04
2023-04-09T15:45:08.809Z,14.01
2023-04-09T15:50:12.949Z,13.95
2023-04-09T15:55:17.034Z,13.88
2023-04-09T16:00:23.824Z,13.81
2023-04-09T16:05:27.574Z,13.74
2023-04-09T16:10:31.354Z,13.63
2023-04-09T16:15:35.600Z,13.56
2023-04-09T16:20:39.318Z,13.47
2023-04-09T16:25:42.800Z,13.39
2023-04-09T16:30:50.974Z,13.37
2023-04-09T16:36:00.971Z,13.40
2023-04-09T16:41:04.872Z,13.31
2023-04-09T16:46:10.964Z,13.22
2023-04-09T16:51:14.778Z,13.14
2023-04-09T16:56:18.321Z,13.08
2023-04-09T17:01:21.964Z,13.01
2023-04-09T17:06:28.407Z,12.95
2023-04-09T17:11:32.914Z,12.94
2023-04-09T17:16:38.291Z,12.89
2023-04-09T17:21:45.878Z,12.83
2023-04-09T17:26:50.409Z,12.76
2023-04-09T17:31:54.411Z,12.70
2023-04-09T17:37:01.391Z,12.68
2023-04-09T17:42:09.124Z,12.73
2023-04-09T17:47:13.305Z,12.65
2023-04-09T17:52:25.213Z,12.52
2023-04-09T17:57:29.306Z,12.41
2023-04-09T18:02:37.423Z,12.33
2023-04-09T18:07:42.594Z,12.27
2023-04-09T18:12:59.023Z,12.23
2023-04-09T18:18:09.975Z,12.31
2023-04-09T18:23:33.321Z,12.31
2023-04-09T18:28:37.718Z,12.20
2023-04-09T18:33:41.531Z,12.09
2023-04-09T18:38:49.519Z,12.01
2023-04-09T18:43:57.881Z,11.93
2023-04-09T18:49:02.444Z,11.85
2023-04-09T18:54:11.910Z,11.78
2023-04-09T18:59:16.915Z,11.72
2023-04-09T19:04:21.041Z,11.66
2023-04-09T19:09:28.089Z,11.61
2023-04-09T19:14:37.366Z,11.60
2023-04-09T19:19:41.366Z,11.66
2023-04-09T19:25:33.576Z,11.73
2023-04-09T19:30:23.886Z,11.65
2023-04-09T19:43:09.900Z,11.51
2023-04-09T19:48:24.286Z,11.43
2023-04-09T22:05:34.879Z,10.80
2023-04-09T22:10:39.323Z,10.81
2023-04-09T22:15:43.711Z,10.84
2023-04-09T22:21:22.716Z,10.86
2023-04-09T22:26:41.295Z,10.83
2023-04-09T22:31:46.104Z,10.84
2023-04-09T22:36:51.084Z,10.83
2023-04-09T22:43:01.838Z,10.82
2023-04-09T22:48:07.763Z,10.79
2023-04-09T22:53:11.960Z,10.77
2023-04-09T22:58:16.061Z,10.74
2023-04-09T23:03:20.192Z,10.70
2023-04-09T23:08:24.213Z,10.63
2023-04-09T23:13:28.506Z,10.62
2023-04-09T23:18:32.404Z,10.66
2023-04-09T23:23:37.341Z,10.77
2023-04-09T23:28:41.379Z,10.78
2023-04-09T23:33:45.526Z,10.68
2023-04-09T23:39:04.037Z,10.56
2023-04-09T23:44:07.909Z,10.47
2023-04-09T23:49:12.163Z,10.51
2023-04-09T23:54:18.709Z,10.52
2023-04-09T23:59:23.055Z,10.50
